sensor_id;sensor_type;location;lat;lon;timestamp;temperature;humidity
20973;DHT22;10645;52.370;13.314;2023-07-09T00:00:15;15.70;99.90
20973;DHT22;10645;52.370;13.314;2023-07-09T00:02:42;15.70;99.90
20973;DHT22;10645;52.370;13.314;2023-07-09T00:05:15;15.60;99.90
20973;DHT22;10645;52.370;13.314;2023-07-09T00:07:43;15.50;99.90
20973;DHT22;10645;52.370;13.314;2023-07-09T00:10:18;15.50;99.90
20973;DHT22;10645;52.370;13.314;2023-07-09T00:12:45;15.50;99.90
20973;DHT22;10645;52.370;13.314;2023-07-09T00:15:13;15.40;99.90
20973;DHT22;10645;52.370;13.314;2023-07-09T00:17:41;15.30;99.90
20973;DHT22;10645;52.370;13.314;2023-07-09T00:20:13;15.30;99.90
20973;DHT22;10645;52.370;13.314;2023-07-09T00:22:41;15.20;99.90
20973;DHT22;10645;52.370;13.314;2023-07-09T00:25:10;15.10;99.90
20973;DHT22;10645;52.370;13.314;2023-07-09T00:27:40;15.00;99.90
20973;DHT22;10645;52.370;13.314;2023-07-09T00:30:14;15.00;99.90
20973;DHT22;10645;52.370;13.314;2023-07-09T00:32:41;14.90;99.90
20973;DHT22;10645;52.370;13.314;2023-07-09T00:35:10;14.90;99.90
20973;DHT22;10645;52.370;13.314;2023-07-09T00:37:39;14.80;99.90
20973;DHT22;10645;52.370;13.314;2023-07-09T00:40:13;14.70;99.90
20973;DHT22;10645;52.370;13.314;2023-07-09T00:42:43;14.60;99.90
20973;DHT22;10645;52.370;13.314;2023-07-09T00:45:19;14.60;99.90
20973;DHT22;10645;52.370;13.314;2023-07-09T00:50:31;14.50;99.90
20973;DHT22;10645;52.370;13.314;2023-07-09T00:53:20;14.40;99.90
20973;DHT22;10645;52.370;13.314;2023-07-09T00:56:00;14.30;99.90
20973;DHT22;10645;52.370;13.314;2023-07-09T00:58:27;14.30;99.90
20973;DHT22;10645;52.370;13.314;2023-07-09T01:00:56;14.20;99.90
20973;DHT22;10645;52.370;13.314;2023-07-09T01:03:39;14.20;99.90
20973;DHT22;10645;52.370;13.314;2023-07-09T01:06:08;14.10;99.90
20973;DHT22;10645;52.370;13.314;2023-07-09T01:08:37;14.10;99.90
20973;DHT22;10645;52.370;13.314;2023-07-09T01:11:17;14.00;99.90
20973;DHT22;10645;52.370;13.314;2023-07-09T01:13:52;14.00;99.90
20973;DHT22;10645;52.370;13.314;2023-07-09T01:16:21;14.00;99.90
20973;DHT22;10645;52.370;13.314;2023-07-09T01:18:52;13.90;99.90
20973;DHT22;10645;52.370;13.314;2023-07-09T01:21:19;13.90;99.90
20973;DHT22;10645;52.370;13.314;2023-07-09T01:23:48;13.80;99.90
20973;DHT22;10645;52.370;13.314;2023-07-09T01:26:17;13.80;99.90
20973;DHT22;10645;52.370;13.314;2023-07-09T01:28:45;13.70;99.90
20973;DHT22;10645;52.370;13.314;2023-07-09T01:31:12;13.60;99.90
20973;DHT22;10645;52.370;13.314;2023-07-09T01:33:40;13.70;99.90
20973;DHT22;10645;52.370;13.314;2023-07-09T01:36:07;13.60;99.90
20973;DHT22;10645;52.370;13.314;2023-07-09T01:38:34;13.60;99.90
20973;DHT22;10645;52.370;13.314;2023-07-09T01:41:03;13.50;99.90
20973;DHT22;10645;52.370;13.314;2023-07-09T01:43:30;13.50;99.90
20973;DHT22;10645;52.370;13.314;2023-07-09T01:45:56;13.50;99.90
20973;DHT22;10645;52.370;13.314;2023-07-09T01:48:25;13.50;99.90
20973;DHT22;10645;52.370;13.314;2023-07-09T01:50:52;13.50;99.90
20973;DHT22;10645;52.370;13.314;2023-07-09T01:53:21;13.50;99.90
20973;DHT22;10645;52.370;13.314;2023-07-09T01:55:50;13.50;99.90
20973;DHT22;10645;52.370;13.314;2023-07-09T01:58:17;13.40;99.90
20973;DHT22;10645;52.370;13.314;2023-07-09T02:00:43;13.40;99.90
20973;DHT22;10645;52.370;13.314;2023-07-09T02:03:11;13.40;99.90
20973;DHT22;10645;52.370;13.314;2023-07-09T02:05:37;13.40;99.90
20973;DHT22;10645;52.370;13.314;2023-07-09T02:08:04;13.30;99.90
20973;DHT22;10645;52.370;13.314;2023-07-09T02:10:30;13.30;99.90
20973;DHT22;10645;52.370;13.314;2023-07-09T02:12:56;13.30;99.90
20973;DHT22;10645;52.370;13.314;2023-07-09T02:15:23;13.30;99.90
20973;DHT22;10645;52.370;13.314;2023-07-09T02:17:49;13.30;99.90
20973;DHT22;10645;52.370;13.314;2023-07-09T02:20:18;13.30;99.90
20973;DHT22;10645;52.370;13.314;2023-07-09T02:22:45;13.30;99.90
20973;DHT22;10645;52.370;13.314;2023-07-09T02:25:11;13.30;99.90
20973;DHT22;10645;52.370;13.314;2023-07-09T02:27:38;13.20;99.90
20973;DHT22;10645;52.370;13.314;2023-07-09T02:30:05;13.20;99.90
20973;DHT22;10645;52.370;13.314;2023-07-09T02:32:32;13.20;99.90
20973;DHT22;10645;52.370;13.314;2023-07-09T02:34:58;13.20;99.90
20973;DHT22;10645;52.370;13.314;2023-07-09T02:37:25;13.20;99.90
20973;DHT22;10645;52.370;13.314;2023-07-09T02:39:52;13.10;99.90
20973;DHT22;10645;52.370;13.314;2023-07-09T02:42:21;13.10;99.90
20973;DHT22;10645;52.370;13.314;2023-07-09T02:44:49;13.10;99.90
20973;DHT22;10645;52.370;13.314;2023-07-09T02:47:15;13.10;99.90
20973;DHT22;10645;52.370;13.314;2023-07-09T02:49:42;13.00;99.90
20973;DHT22;10645;52.370;13.314;2023-07-09T02:52:08;13.00;99.90
20973;DHT22;10645;52.370;13.314;2023-07-09T02:54:34;13.00;99.90
20973;DHT22;10645;52.370;13.314;2023-07-09T02:57:01;13.00;99.90
20973;DHT22;10645;52.370;13.314;2023-07-09T02:59:27;13.00;99.90
20973;DHT22;10645;52.370;13.314;2023-07-09T03:01:56;13.00;99.90
20973;DHT22;10645;52.370;13.314;2023-07-09T03:04:22;13.00;99.90
20973;DHT22;10645;52.370;13.314;2023-07-09T03:06:48;13.00;99.90
20973;DHT22;10645;52.370;13.314;2023-07-09T03:09:14;12.90;99.90
20973;DHT22;10645;52.370;13.314;2023-07-09T03:11:40;12.90;99.90
20973;DHT22;10645;52.370;13.314;2023-07-09T03:14:07;12.90;99.90
20973;DHT22;10645;52.370;13.314;2023-07-09T03:16:34;12.90;99.90
20973;DHT22;10645;52.370;13.314;2023-07-09T03:19:01;12.90;99.90
20973;DHT22;10645;52.370;13.314;2023-07-09T03:21:28;12.80;99.90
20973;DHT22;10645;52.370;13.314;2023-07-09T03:23:55;12.90;99.90
20973;DHT22;10645;52.370;13.314;2023-07-09T03:26:21;12.80;99.90
20973;DHT22;10645;52.370;13.314;2023-07-09T03:28:47;12.90;99.90
20973;DHT22;10645;52.370;13.314;2023-07-09T03:31:14;12.90;99.90
20973;DHT22;10645;52.370;13.314;2023-07-09T03:33:40;13.00;99.90
20973;DHT22;10645;52.370;13.314;2023-07-09T03:36:06;13.10;99.90
20973;DHT22;10645;52.370;13.314;2023-07-09T03:38:32;13.10;99.90
20973;DHT22;10645;52.370;13.314;2023-07-09T03:40:59;13.10;99.90
20973;DHT22;10645;52.370;13.314;2023-07-09T03:43:25;13.20;99.90
20973;DHT22;10645;52.370;13.314;2023-07-09T03:45:51;13.20;99.90
20973;DHT22;10645;52.370;13.314;2023-07-09T03:48:19;13.30;99.90
20973;DHT22;10645;52.370;13.314;2023-07-09T03:50:46;13.30;99.90
20973;DHT22;10645;52.370;13.314;2023-07-09T03:53:14;13.40;99.90
20973;DHT22;10645;52.370;13.314;2023-07-09T03:55:41;13.50;99.90
20973;DHT22;10645;52.370;13.314;2023-07-09T03:58:09;13.60;99.90
20973;DHT22;10645;52.370;13.314;2023-07-09T04:00:35;13.70;99.90
20973;DHT22;10645;52.370;13.314;2023-07-09T04:03:01;13.80;99.90
20973;DHT22;10645;52.370;13.314;2023-07-09T04:05:28;13.90;99.90
20973;DHT22;10645;52.370;13.314;2023-07-09T04:07:54;14.00;99.90
20973;DHT22;10645;52.370;13.314;2023-07-09T04:10:20;14.10;99.90
20973;DHT22;10645;52.370;13.314;2023-07-09T04:12:46;14.30;99.90
20973;DHT22;10645;52.370;13.314;2023-07-09T04:15:13;14.40;99.90
20973;DHT22;10645;52.370;13.314;2023-07-09T04:17:40;14.60;99.90
20973;DHT22;10645;52.370;13.314;2023-07-09T04:20:07;14.70;99.90
20973;DHT22;10645;52.370;13.314;2023-07-09T04:22:36;15.00;99.90
20973;DHT22;10645;52.370;13.314;2023-07-09T04:25:04;15.10;99.90
20973;DHT22;10645;52.370;13.314;2023-07-09T04:27:31;15.20;99.90
20973;DHT22;10645;52.370;13.314;2023-07-09T04:29:57;15.40;99.90
20973;DHT22;10645;52.370;13.314;2023-07-09T04:32:23;15.50;99.90
20973;DHT22;10645;52.370;13.314;2023-07-09T04:34:49;15.70;99.90
20973;DHT22;10645;52.370;13.314;2023-07-09T04:37:16;15.80;99.90
20973;DHT22;10645;52.370;13.314;2023-07-09T04:39:45;16.00;99.90
20973;DHT22;10645;52.370;13.314;2023-07-09T04:42:15;16.10;99.90
20973;DHT22;10645;52.370;13.314;2023-07-09T04:44:43;16.20;99.90
20973;DHT22;10645;52.370;13.314;2023-07-09T04:47:09;16.40;99.90
20973;DHT22;10645;52.370;13.314;2023-07-09T04:49:35;16.50;99.90
20973;DHT22;10645;52.370;13.314;2023-07-09T04:52:01;16.60;99.90
20973;DHT22;10645;52.370;13.314;2023-07-09T04:54:28;16.70;99.90
20973;DHT22;10645;52.370;13.314;2023-07-09T04:56:54;16.90;99.90
20973;DHT22;10645;52.370;13.314;2023-07-09T04:59:22;17.00;99.90
20973;DHT22;10645;52.370;13.314;2023-07-09T05:01:49;17.20;99.90
20973;DHT22;10645;52.370;13.314;2023-07-09T05:04:15;17.30;99.90
20973;DHT22;10645;52.370;13.314;2023-07-09T05:06:41;17.40;99.90
20973;DHT22;10645;52.370;13.314;2023-07-09T05:09:07;17.50;99.90
20973;DHT22;10645;52.370;13.314;2023-07-09T05:11:35;17.60;99.90
20973;DHT22;10645;52.370;13.314;2023-07-09T05:14:02;17.70;99.90
20973;DHT22;10645;52.370;13.314;2023-07-09T05:16:29;17.80;99.90
20973;DHT22;10645;52.370;13.314;2023-07-09T05:18:55;18.00;99.90
20973;DHT22;10645;52.370;13.314;2023-07-09T05:21:21;18.10;99.90
20973;DHT22;10645;52.370;13.314;2023-07-09T05:23:48;18.30;99.90
20973;DHT22;10645;52.370;13.314;2023-07-09T05:26:14;18.30;99.90
20973;DHT22;10645;52.370;13.314;2023-07-09T05:28:40;18.40;99.90
20973;DHT22;10645;52.370;13.314;2023-07-09T05:31:06;18.60;99.90
20973;DHT22;10645;52.370;13.314;2023-07-09T05:33:32;18.70;99.90
20973;DHT22;10645;52.370;13.314;2023-07-09T05:35:58;18.80;99.90
20973;DHT22;10645;52.370;13.314;2023-07-09T05:38:25;19.00;99.90
20973;DHT22;10645;52.370;13.314;2023-07-09T05:41:00;19.20;99.90
20973;DHT22;10645;52.370;13.314;2023-07-09T05:43:27;19.30;99.90
20973;DHT22;10645;52.370;13.314;2023-07-09T05:45:53;19.50;99.90
20973;DHT22;10645;52.370;13.314;2023-07-09T05:48:19;19.60;99.90
20973;DHT22;10645;52.370;13.314;2023-07-09T05:50:45;19.70;99.90
20973;DHT22;10645;52.370;13.314;2023-07-09T05:53:11;19.90;99.90
20973;DHT22;10645;52.370;13.314;2023-07-09T05:55:37;20.00;99.90
20973;DHT22;10645;52.370;13.314;2023-07-09T05:58:03;20.10;99.90
20973;DHT22;10645;52.370;13.314;2023-07-09T06:00:30;20.20;99.90
20973;DHT22;10645;52.370;13.314;2023-07-09T06:02:56;20.40;99.90
20973;DHT22;10645;52.370;13.314;2023-07-09T06:05:23;20.50;99.90
20973;DHT22;10645;52.370;13.314;2023-07-09T06:07:49;20.60;99.90
20973;DHT22;10645;52.370;13.314;2023-07-09T06:10:15;20.70;99.90
20973;DHT22;10645;52.370;13.314;2023-07-09T06:12:41;20.80;99.90
20973;DHT22;10645;52.370;13.314;2023-07-09T06:15:07;21.00;99.90
20973;DHT22;10645;52.370;13.314;2023-07-09T06:17:34;21.10;99.90
20973;DHT22;10645;52.370;13.314;2023-07-09T06:20:00;21.20;99.90
20973;DHT22;10645;52.370;13.314;2023-07-09T06:22:26;21.40;99.90
20973;DHT22;10645;52.370;13.314;2023-07-09T06:24:54;21.50;99.90
20973;DHT22;10645;52.370;13.314;2023-07-09T06:27:20;21.60;99.90
20973;DHT22;10645;52.370;13.314;2023-07-09T06:29:46;21.70;99.90
20973;DHT22;10645;52.370;13.314;2023-07-09T06:32:12;21.90;99.90
20973;DHT22;10645;52.370;13.314;2023-07-09T06:34:39;22.10;99.90
20973;DHT22;10645;52.370;13.314;2023-07-09T06:37:05;22.10;99.90
20973;DHT22;10645;52.370;13.314;2023-07-09T06:39:31;22.20;99.90
20973;DHT22;10645;52.370;13.314;2023-07-09T06:41:58;22.40;99.90
20973;DHT22;10645;52.370;13.314;2023-07-09T06:44:44;22.60;99.90
20973;DHT22;10645;52.370;13.314;2023-07-09T06:47:10;22.70;99.90
20973;DHT22;10645;52.370;13.314;2023-07-09T06:49:36;22.80;99.90
20973;DHT22;10645;52.370;13.314;2023-07-09T06:52:03;22.90;99.90
20973;DHT22;10645;52.370;13.314;2023-07-09T06:54:29;23.00;99.90
20973;DHT22;10645;52.370;13.314;2023-07-09T06:56:55;23.00;99.90
20973;DHT22;10645;52.370;13.314;2023-07-09T06:59:22;23.20;99.90
20973;DHT22;10645;52.370;13.314;2023-07-09T07:01:48;23.40;99.90
20973;DHT22;10645;52.370;13.314;2023-07-09T07:04:14;23.60;99.90
20973;DHT22;10645;52.370;13.314;2023-07-09T07:06:41;23.70;99.90
20973;DHT22;10645;52.370;13.314;2023-07-09T07:09:07;23.80;99.90
20973;DHT22;10645;52.370;13.314;2023-07-09T07:11:34;24.00;99.90
20973;DHT22;10645;52.370;13.314;2023-07-09T07:14:00;24.10;99.90
20973;DHT22;10645;52.370;13.314;2023-07-09T07:16:26;24.30;99.90
20973;DHT22;10645;52.370;13.314;2023-07-09T07:18:52;24.50;99.90
20973;DHT22;10645;52.370;13.314;2023-07-09T07:21:18;24.60;99.90
20973;DHT22;10645;52.370;13.314;2023-07-09T07:23:44;24.70;99.90
20973;DHT22;10645;52.370;13.314;2023-07-09T07:26:10;24.80;99.90
20973;DHT22;10645;52.370;13.314;2023-07-09T07:28:36;25.00;99.90
20973;DHT22;10645;52.370;13.314;2023-07-09T07:31:06;25.10;99.90
20973;DHT22;10645;52.370;13.314;2023-07-09T07:33:33;25.20;99.90
20973;DHT22;10645;52.370;13.314;2023-07-09T07:35:59;25.40;99.90
20973;DHT22;10645;52.370;13.314;2023-07-09T07:38:25;25.60;99.90
20973;DHT22;10645;52.370;13.314;2023-07-09T07:40:53;25.80;99.90
20973;DHT22;10645;52.370;13.314;2023-07-09T07:43:19;25.80;99.90
20973;DHT22;10645;52.370;13.314;2023-07-09T07:45:47;26.00;99.90
20973;DHT22;10645;52.370;13.314;2023-07-09T07:48:13;26.20;99.90
20973;DHT22;10645;52.370;13.314;2023-07-09T07:50:39;26.30;99.90
20973;DHT22;10645;52.370;13.314;2023-07-09T07:53:07;26.20;98.90
20973;DHT22;10645;52.370;13.314;2023-07-09T07:55:34;26.40;99.90
20973;DHT22;10645;52.370;13.314;2023-07-09T07:58:02;26.60;99.20
20973;DHT22;10645;52.370;13.314;2023-07-09T08:00:30;26.70;99.40
20973;DHT22;10645;52.370;13.314;2023-07-09T08:02:56;26.70;97.70
20973;DHT22;10645;52.370;13.314;2023-07-09T08:05:22;26.80;98.20
20973;DHT22;10645;52.370;13.314;2023-07-09T08:07:49;26.80;98.30
20973;DHT22;10645;52.370;13.314;2023-07-09T08:10:15;26.70;98.20
20973;DHT22;10645;52.370;13.314;2023-07-09T08:12:42;26.80;99.90
20973;DHT22;10645;52.370;13.314;2023-07-09T08:15:08;27.00;97.10
20973;DHT22;10645;52.370;13.314;2023-07-09T08:17:34;27.10;97.20
20973;DHT22;10645;52.370;13.314;2023-07-09T08:20:00;27.20;97.90
20973;DHT22;10645;52.370;13.314;2023-07-09T08:22:26;27.40;97.00
20973;DHT22;10645;52.370;13.314;2023-07-09T08:24:52;27.50;96.50
20973;DHT22;10645;52.370;13.314;2023-07-09T08:27:19;27.70;97.30
20973;DHT22;10645;52.370;13.314;2023-07-09T08:29:46;27.90;97.90
20973;DHT22;10645;52.370;13.314;2023-07-09T08:32:12;28.00;96.00
20973;DHT22;10645;52.370;13.314;2023-07-09T08:34:40;28.20;97.20
20973;DHT22;10645;52.370;13.314;2023-07-09T08:37:07;28.30;95.90
20973;DHT22;10645;52.370;13.314;2023-07-09T08:39:34;28.40;95.60
20973;DHT22;10645;52.370;13.314;2023-07-09T08:42:07;28.50;95.10
20973;DHT22;10645;52.370;13.314;2023-07-09T08:45:13;28.60;94.80
20973;DHT22;10645;52.370;13.314;2023-07-09T08:48:12;29.00;95.70
20973;DHT22;10645;52.370;13.314;2023-07-09T08:50:43;29.20;95.80
20973;DHT22;10645;52.370;13.314;2023-07-09T08:53:18;29.20;95.40
20973;DHT22;10645;52.370;13.314;2023-07-09T08:55:47;29.20;93.10
20973;DHT22;10645;52.370;13.314;2023-07-09T08:58:24;29.30;92.50
20973;DHT22;10645;52.370;13.314;2023-07-09T09:00:54;29.40;95.10
20973;DHT22;10645;52.370;13.314;2023-07-09T09:03:32;29.60;92.80
20973;DHT22;10645;52.370;13.314;2023-07-09T09:06:01;30.00;91.20
20973;DHT22;10645;52.370;13.314;2023-07-09T09:11:53;30.10;90.90
20973;DHT22;10645;52.370;13.314;2023-07-09T09:14:31;30.10;91.50
20973;DHT22;10645;52.370;13.314;2023-07-09T09:16:58;30.10;90.20
20973;DHT22;10645;52.370;13.314;2023-07-09T09:19:32;30.10;88.80
20973;DHT22;10645;52.370;13.314;2023-07-09T09:22:07;30.10;91.20
20973;DHT22;10645;52.370;13.314;2023-07-09T09:24:46;30.30;87.30
20973;DHT22;10645;52.370;13.314;2023-07-09T09:27:17;30.60;89.70
20973;DHT22;10645;52.370;13.314;2023-07-09T09:29:43;30.80;83.60
20973;DHT22;10645;52.370;13.314;2023-07-09T09:32:26;30.70;84.60
20973;DHT22;10645;52.370;13.314;2023-07-09T09:34:53;30.60;80.60
20973;DHT22;10645;52.370;13.314;2023-07-09T09:37:30;30.80;86.80
20973;DHT22;10645;52.370;13.314;2023-07-09T09:39:59;30.90;87.80
20973;DHT22;10645;52.370;13.314;2023-07-09T09:42:25;31.00;80.20
20973;DHT22;10645;52.370;13.314;2023-07-09T09:44:54;30.90;81.70
20973;DHT22;10645;52.370;13.314;2023-07-09T09:47:21;31.10;83.50
20973;DHT22;10645;52.370;13.314;2023-07-09T09:49:52;31.10;79.70
20973;DHT22;10645;52.370;13.314;2023-07-09T09:52:18;31.10;82.20
20973;DHT22;10645;52.370;13.314;2023-07-09T09:54:54;31.30;80.90
20973;DHT22;10645;52.370;13.314;2023-07-09T09:57:24;31.40;80.10
20973;DHT22;10645;52.370;13.314;2023-07-09T09:59:50;31.50;87.30
20973;DHT22;10645;52.370;13.314;2023-07-09T10:02:23;31.80;78.60
20973;DHT22;10645;52.370;13.314;2023-07-09T10:04:51;31.80;77.60
20973;DHT22;10645;52.370;13.314;2023-07-09T10:07:27;31.80;75.50
20973;DHT22;10645;52.370;13.314;2023-07-09T10:09:56;31.90;71.50
20973;DHT22;10645;52.370;13.314;2023-07-09T10:15:11;31.60;77.80
20973;DHT22;10645;52.370;13.314;2023-07-09T10:20:37;31.60;80.60
20973;DHT22;10645;52.370;13.314;2023-07-09T10:23:13;31.90;76.40
20973;DHT22;10645;52.370;13.314;2023-07-09T10:25:59;32.00;75.70
20973;DHT22;10645;52.370;13.314;2023-07-09T10:31:07;32.20;75.40
20973;DHT22;10645;52.370;13.314;2023-07-09T10:37:08;32.90;78.00
20973;DHT22;10645;52.370;13.314;2023-07-09T10:39:44;33.00;74.60
20973;DHT22;10645;52.370;13.314;2023-07-09T10:42:35;32.90;72.90
20973;DHT22;10645;52.370;13.314;2023-07-09T10:45:08;32.70;75.90
20973;DHT22;10645;52.370;13.314;2023-07-09T10:47:41;32.70;77.60
20973;DHT22;10645;52.370;13.314;2023-07-09T10:50:31;33.00;79.50
20973;DHT22;10645;52.370;13.314;2023-07-09T10:53:05;33.00;75.30
20973;DHT22;10645;52.370;13.314;2023-07-09T10:55:47;33.30;73.40
20973;DHT22;10645;52.370;13.314;2023-07-09T10:58:19;33.40;74.40
20973;DHT22;10645;52.370;13.314;2023-07-09T11:00:47;33.40;73.90
20973;DHT22;10645;52.370;13.314;2023-07-09T11:03:22;33.20;71.50
20973;DHT22;10645;52.370;13.314;2023-07-09T11:05:51;33.00;70.00
20973;DHT22;10645;52.370;13.314;2023-07-09T11:08:24;32.70;68.90
20973;DHT22;10645;52.370;13.314;2023-07-09T11:10:58;32.70;67.20
20973;DHT22;10645;52.370;13.314;2023-07-09T11:13:32;32.20;71.10
20973;DHT22;10645;52.370;13.314;2023-07-09T11:16:02;32.40;74.40
20973;DHT22;10645;52.370;13.314;2023-07-09T11:18:33;32.70;70.90
20973;DHT22;10645;52.370;13.314;2023-07-09T11:21:03;33.00;70.50
20973;DHT22;10645;52.370;13.314;2023-07-09T11:23:50;33.30;74.80
20973;DHT22;10645;52.370;13.314;2023-07-09T11:26:25;33.10;67.30
20973;DHT22;10645;52.370;13.314;2023-07-09T11:29:16;33.10;67.90
20973;DHT22;10645;52.370;13.314;2023-07-09T11:31:45;32.70;67.40
20973;DHT22;10645;52.370;13.314;2023-07-09T11:36:51;32.80;71.50
20973;DHT22;10645;52.370;13.314;2023-07-09T11:42:32;33.40;61.60
20973;DHT22;10645;52.370;13.314;2023-07-09T11:53:18;33.10;67.70
20973;DHT22;10645;52.370;13.314;2023-07-09T11:55:48;33.40;72.20
20973;DHT22;10645;52.370;13.314;2023-07-09T11:58:17;33.30;68.10
20973;DHT22;10645;52.370;13.314;2023-07-09T12:00:50;33.60;67.00
20973;DHT22;10645;52.370;13.314;2023-07-09T12:03:29;33.40;66.40
20973;DHT22;10645;52.370;13.314;2023-07-09T12:06:07;33.60;68.40
20973;DHT22;10645;52.370;13.314;2023-07-09T12:08:41;34.10;69.70
20973;DHT22;10645;52.370;13.314;2023-07-09T12:13:50;34.40;66.00
20973;DHT22;10645;52.370;13.314;2023-07-09T12:16:28;34.30;65.60
20973;DHT22;10645;52.370;13.314;2023-07-09T12:18:54;34.00;65.20
20973;DHT22;10645;52.370;13.314;2023-07-09T12:21:22;34.00;62.60
20973;DHT22;10645;52.370;13.314;2023-07-09T12:23:49;33.70;64.80
20973;DHT22;10645;52.370;13.314;2023-07-09T12:26:17;33.80;64.40
20973;DHT22;10645;52.370;13.314;2023-07-09T12:28:50;33.90;68.30
20973;DHT22;10645;52.370;13.314;2023-07-09T12:31:17;33.80;62.60
20973;DHT22;10645;52.370;13.314;2023-07-09T12:33:50;33.70;67.80
20973;DHT22;10645;52.370;13.314;2023-07-09T12:36:18;33.90;61.90
20973;DHT22;10645;52.370;13.314;2023-07-09T12:38:52;33.90;63.60
20973;DHT22;10645;52.370;13.314;2023-07-09T12:41:24;33.90;66.60
20973;DHT22;10645;52.370;13.314;2023-07-09T12:43:52;34.10;58.90
20973;DHT22;10645;52.370;13.314;2023-07-09T12:46:19;34.00;64.90
20973;DHT22;10645;52.370;13.314;2023-07-09T12:48:46;34.10;66.00
20973;DHT22;10645;52.370;13.314;2023-07-09T12:51:23;34.00;68.70
20973;DHT22;10645;52.370;13.314;2023-07-09T12:54:16;34.00;66.00
20973;DHT22;10645;52.370;13.314;2023-07-09T12:56:42;34.40;61.70
20973;DHT22;10645;52.370;13.314;2023-07-09T12:59:38;34.50;62.80
20973;DHT22;10645;52.370;13.314;2023-07-09T13:02:15;34.20;61.40
20973;DHT22;10645;52.370;13.314;2023-07-09T13:04:41;34.20;58.50
20973;DHT22;10645;52.370;13.314;2023-07-09T13:07:27;34.00;66.70
20973;DHT22;10645;52.370;13.314;2023-07-09T13:09:54;34.10;65.60
20973;DHT22;10645;52.370;13.314;2023-07-09T13:12:28;34.30;62.80
20973;DHT22;10645;52.370;13.314;2023-07-09T13:14:55;34.10;64.20
20973;DHT22;10645;52.370;13.314;2023-07-09T13:17:22;34.00;59.30
20973;DHT22;10645;52.370;13.314;2023-07-09T13:19:48;33.70;67.60
20973;DHT22;10645;52.370;13.314;2023-07-09T13:22:18;33.60;63.20
20973;DHT22;10645;52.370;13.314;2023-07-09T13:24:45;33.60;59.50
20973;DHT22;10645;52.370;13.314;2023-07-09T13:27:13;33.60;65.30
20973;DHT22;10645;52.370;13.314;2023-07-09T13:29:40;33.30;64.50
20973;DHT22;10645;52.370;13.314;2023-07-09T13:32:11;33.30;66.10
20973;DHT22;10645;52.370;13.314;2023-07-09T13:34:38;33.20;66.00
20973;DHT22;10645;52.370;13.314;2023-07-09T13:37:06;33.30;62.90
20973;DHT22;10645;52.370;13.314;2023-07-09T13:39:34;33.30;61.30
20973;DHT22;10645;52.370;13.314;2023-07-09T13:42:00;33.50;66.00
20973;DHT22;10645;52.370;13.314;2023-07-09T13:44:29;33.60;59.30
20973;DHT22;10645;52.370;13.314;2023-07-09T13:46:56;33.80;63.00
20973;DHT22;10645;52.370;13.314;2023-07-09T13:49:25;33.60;63.60
20973;DHT22;10645;52.370;13.314;2023-07-09T13:51:55;33.40;60.00
20973;DHT22;10645;52.370;13.314;2023-07-09T13:54:27;33.60;59.60
20973;DHT22;10645;52.370;13.314;2023-07-09T13:56:57;33.60;64.40
20973;DHT22;10645;52.370;13.314;2023-07-09T13:59:24;33.70;64.20
20973;DHT22;10645;52.370;13.314;2023-07-09T14:01:52;33.50;64.50
20973;DHT22;10645;52.370;13.314;2023-07-09T14:04:24;33.30;64.70
20973;DHT22;10645;52.370;13.314;2023-07-09T14:06:51;33.60;63.20
20973;DHT22;10645;52.370;13.314;2023-07-09T14:09:17;33.50;62.00
20973;DHT22;10645;52.370;13.314;2023-07-09T14:11:51;33.50;64.00
20973;DHT22;10645;52.370;13.314;2023-07-09T14:16:45;33.70;60.50
20973;DHT22;10645;52.370;13.314;2023-07-09T14:19:14;33.60;62.30
20973;DHT22;10645;52.370;13.314;2023-07-09T14:21:41;33.50;62.80
20973;DHT22;10645;52.370;13.314;2023-07-09T14:24:19;33.40;60.50
20973;DHT22;10645;52.370;13.314;2023-07-09T14:26:47;33.50;61.10
20973;DHT22;10645;52.370;13.314;2023-07-09T14:29:13;33.70;64.00
20973;DHT22;10645;52.370;13.314;2023-07-09T14:31:40;33.90;61.60
20973;DHT22;10645;52.370;13.314;2023-07-09T14:34:24;34.10;65.40
20973;DHT22;10645;52.370;13.314;2023-07-09T14:36:52;34.30;59.80
20973;DHT22;10645;52.370;13.314;2023-07-09T14:39:19;34.30;62.80
20973;DHT22;10645;52.370;13.314;2023-07-09T14:41:45;34.40;60.30
20973;DHT22;10645;52.370;13.314;2023-07-09T14:44:28;34.40;64.70
20973;DHT22;10645;52.370;13.314;2023-07-09T14:46:57;34.70;60.50
20973;DHT22;10645;52.370;13.314;2023-07-09T14:49:24;34.90;60.00
20973;DHT22;10645;52.370;13.314;2023-07-09T14:51:51;34.90;57.10
20973;DHT22;10645;52.370;13.314;2023-07-09T14:56:53;34.90;62.80
20973;DHT22;10645;52.370;13.314;2023-07-09T14:59:20;34.70;63.30
20973;DHT22;10645;52.370;13.314;2023-07-09T15:01:46;34.80;62.20
20973;DHT22;10645;52.370;13.314;2023-07-09T15:06:53;35.00;57.30
20973;DHT22;10645;52.370;13.314;2023-07-09T15:09:21;34.80;62.60
20973;DHT22;10645;52.370;13.314;2023-07-09T15:11:53;34.90;60.20
20973;DHT22;10645;52.370;13.314;2023-07-09T15:14:19;34.70;62.80
20973;DHT22;10645;52.370;13.314;2023-07-09T15:16:49;34.80;61.20
20973;DHT22;10645;52.370;13.314;2023-07-09T15:19:18;34.60;64.20
20973;DHT22;10645;52.370;13.314;2023-07-09T15:21:45;34.50;59.80
20973;DHT22;10645;52.370;13.314;2023-07-09T15:24:19;34.40;60.70
20973;DHT22;10645;52.370;13.314;2023-07-09T15:26:49;34.20;63.70
20973;DHT22;10645;52.370;13.314;2023-07-09T15:29:15;34.00;63.60
20973;DHT22;10645;52.370;13.314;2023-07-09T15:31:41;34.00;60.50
20973;DHT22;10645;52.370;13.314;2023-07-09T15:34:07;34.10;62.40
20973;DHT22;10645;52.370;13.314;2023-07-09T15:36:34;34.00;62.10
20973;DHT22;10645;52.370;13.314;2023-07-09T15:39:00;34.00;57.90
20973;DHT22;10645;52.370;13.314;2023-07-09T15:41:26;33.90;60.70
20973;DHT22;10645;52.370;13.314;2023-07-09T15:43:52;33.80;62.10
20973;DHT22;10645;52.370;13.314;2023-07-09T15:46:20;33.90;61.30
20973;DHT22;10645;52.370;13.314;2023-07-09T15:48:47;33.80;65.50
20973;DHT22;10645;52.370;13.314;2023-07-09T15:51:16;33.50;65.70
20973;DHT22;10645;52.370;13.314;2023-07-09T15:53:42;33.50;62.90
20973;DHT22;10645;52.370;13.314;2023-07-09T15:56:16;33.50;65.40
20973;DHT22;10645;52.370;13.314;2023-07-09T15:58:46;33.50;66.50
20973;DHT22;10645;52.370;13.314;2023-07-09T16:01:14;33.50;64.80
20973;DHT22;10645;52.370;13.314;2023-07-09T16:03:48;33.60;61.70
20973;DHT22;10645;52.370;13.314;2023-07-09T16:06:15;33.40;65.90
20973;DHT22;10645;52.370;13.314;2023-07-09T16:08:41;33.10;66.50